This is the latest recevied weather packets stored in our database for station/object OK1PMP-6. If no packets are shown the sender has not sent any weather packets the latest 10 day(s).
| Time | Temp. | Humidity | Pressure | Rain* | Wind** | Luminosity | Snow |
|---|---|---|---|---|---|---|---|
| 1778106055 | 12.22° C | 97% | 1010.5 hPa | 2.79 mm | - | 0 W/m² | - |
| 1778105143 | 12.22° C | 97% | 1011 hPa | 2.29 mm | - | 0 W/m² | - |
| 1778104243 | 12.78° C | 96% | 1010.4 hPa | 2.03 mm | - | 0 W/m² | - |
| 1778103340 | 12.78° C | 96% | 1010.5 hPa | 2.79 mm | - | 0 W/m² | - |
| 1778102449 | 12.22° C | 96% | 1010 hPa | 2.79 mm | - | 0 W/m² | - |
| 1778101544 | 12.22° C | 96% | 1009.2 hPa | 3.81 mm | - | 0 W/m² | - |
| 1778100647 | 12.22° C | 95% | 1008.4 hPa | 4.32 mm | - | 0 W/m² | - |
| 1778099749 | 12.22° C | 96% | 1008.9 hPa | 2.79 mm | - | 0 W/m² | - |
| 1778098845 | 12.78° C | 95% | 1009 hPa | 2.03 mm | - | 0 W/m² | - |
| 1778097933 | 12.78° C | 94% | 1009.4 hPa | 0.76 mm | - | 0 W/m² | - |
| 1778097037 | 12.78° C | 93% | 1008.6 hPa | 0 mm | - | 0 W/m² | - |
| 1778096138 | 12.78° C | 93% | 1008.2 hPa | 0 mm | - | 0 W/m² | - |
| 1778095239 | 12.78° C | 92% | 1008.1 hPa | 0 mm | - | 0 W/m² | - |
| 1778094353 | 12.78° C | 93% | 1007.6 hPa | 0 mm | - | 0 W/m² | - |
| 1778093416 | 12.78° C | 91% | 1008 hPa | 0 mm | - | 0 W/m² | - |
| 1778092525 | 12.78° C | 91% | 1007.1 hPa | 0 mm | - | 0 W/m² | - |
| 1778091601 | 12.78° C | 92% | 1007.5 hPa | 0 mm | - | 0 W/m² | - |
| 1778090701 | 12.78° C | 92% | 1007.5 hPa | 0.76 mm | - | 4 W/m² | - |
| 1778089818 | 12.78° C | 90% | 1007.6 hPa | 2.03 mm | - | 10 W/m² | - |
| 1778088900 | 12.78° C | 89% | 1008 hPa | 3.05 mm | - | 17 W/m² | - |
| 1778088063 | 12.78° C | 90% | 1008.2 hPa | 3.3 mm | - | 28 W/m² | - |
| 1778087097 | 13.33° C | 85% | 1009.2 hPa | 3.05 mm | - | 9 W/m² | - |
| 1778086221 | 13.89° C | 84% | 1009.3 hPa | 1.78 mm | - | 7 W/m² | - |
| 1778085281 | 14.44° C | 81% | 1008.6 hPa | 0.76 mm | - | 8 W/m² | - |
| 1778084376 | 16.11° C | 67% | 1007.9 hPa | 0.51 mm | - | 4 W/m² | - |
* Rain latest hour (hover to see other rain measurements)
** Current wind speed in m/s (hover to see current wind gust speed)